CEL129 KIAD-KATL
Flight info
| Callsign | CEL129 |
|---|---|
| Flight time | 1h 41m |
| Altitude | 38000 |
| Route | CLTCH3 FLASK OZZZI2 |
| Aircraft | A346/H-SDE2E3FGHIJ3J4J5M1RWXY/LB1D1 |
Departure
| Time | 2026-05-08 01:44 |
|---|---|
| Airport | Washington Dulles International Airport (KIAD) |
Arrival
| Time | 2026-05-08 03:26 |
|---|---|
| Airport | Hartsfield Jackson Atlanta International Airport (KATL) |
| Time | Latitude | Longitude | Altitude | Speed | Heading |
|---|---|---|---|---|---|
| 2026-05-08 01:09 | 38.94810 | -77.44477 | 304 ft | 0 kts | 8° |
| 2026-05-08 01:25 | 38.94806 | -77.44478 | 304 ft | 2 kts | 9° |
| 2026-05-08 01:26 | 38.94791 | -77.44481 | 304 ft | 2 kts | 8° |
| 2026-05-08 01:26 | 38.94776 | -77.44483 | 304 ft | 2 kts | 8° |
| 2026-05-08 01:26 | 38.94762 | -77.44486 | 305 ft | 2 kts | 9° |
| 2026-05-08 01:26 | 38.94747 | -77.44488 | 305 ft | 2 kts | 349° |
| 2026-05-08 01:27 | 38.94734 | -77.44481 | 305 ft | 2 kts | 313° |
| 2026-05-08 01:27 | 38.94727 | -77.44465 | 306 ft | 2 kts | 282° |
| 2026-05-08 01:27 | 38.94727 | -77.44447 | 306 ft | 2 kts | 265° |
| 2026-05-08 01:27 | 38.94727 | -77.44427 | 306 ft | 2 kts | 269° |
| 2026-05-08 01:28 | 38.94728 | -77.44420 | 306 ft | 0 kts | 270° |
| 2026-05-08 01:28 | 38.94728 | -77.44421 | 305 ft | 0 kts | 270° |
| 2026-05-08 01:30 | 38.94728 | -77.44442 | 305 ft | 4 kts | 270° |
| 2026-05-08 01:30 | 38.94727 | -77.44498 | 305 ft | 8 kts | 270° |
| 2026-05-08 01:31 | 38.94727 | -77.44589 | 305 ft | 11 kts | 271° |
| 2026-05-08 01:31 | 38.94729 | -77.44702 | 305 ft | 14 kts | 271° |
| 2026-05-08 01:31 | 38.94730 | -77.44843 | 303 ft | 18 kts | 270° |
| 2026-05-08 01:31 | 38.94731 | -77.45012 | 303 ft | 19 kts | 271° |
| 2026-05-08 01:32 | 38.94733 | -77.45195 | 303 ft | 19 kts | 271° |
| 2026-05-08 01:32 | 38.94734 | -77.45332 | 302 ft | 13 kts | 271° |
| 2026-05-08 01:32 | 38.94735 | -77.45430 | 301 ft | 0 kts | 271° |
| 2026-05-08 01:32 | 38.94735 | -77.45431 | 301 ft | 0 kts | 271° |
| 2026-05-08 01:36 | 38.94735 | -77.45433 | 301 ft | 1 kts | 271° |
| 2026-05-08 01:36 | 38.94735 | -77.45478 | 301 ft | 8 kts | 271° |
| 2026-05-08 01:36 | 38.94729 | -77.45571 | 299 ft | 11 kts | 242° |
| 2026-05-08 01:36 | 38.94653 | -77.45606 | 300 ft | 12 kts | 183° |
| 2026-05-08 01:37 | 38.94559 | -77.45609 | 301 ft | 14 kts | 181° |
| 2026-05-08 01:37 | 38.94447 | -77.45610 | 301 ft | 16 kts | 181° |
| 2026-05-08 01:37 | 38.94328 | -77.45612 | 303 ft | 17 kts | 181° |
| 2026-05-08 01:37 | 38.94200 | -77.45615 | 303 ft | 19 kts | 181° |
| 2026-05-08 01:38 | 38.94062 | -77.45618 | 302 ft | 21 kts | 179° |
| 2026-05-08 01:38 | 38.93916 | -77.45617 | 300 ft | 21 kts | 181° |
| 2026-05-08 01:38 | 38.93784 | -77.45621 | 299 ft | 18 kts | 181° |
| 2026-05-08 01:38 | 38.93679 | -77.45566 | 297 ft | 16 kts | 136° |
| 2026-05-08 01:39 | 38.93610 | -77.45499 | 296 ft | 8 kts | 181° |
| 2026-05-08 01:39 | 38.93533 | -77.45524 | 294 ft | 13 kts | 201° |
| 2026-05-08 01:39 | 38.93485 | -77.45547 | 293 ft | 0 kts | 200° |
| 2026-05-08 01:42 | 38.93451 | -77.45562 | 293 ft | 9 kts | 200° |
| 2026-05-08 01:42 | 38.93390 | -77.45596 | 291 ft | 6 kts | 219° |
| 2026-05-08 01:43 | 38.93383 | -77.45649 | 291 ft | 7 kts | 279° |
| 2026-05-08 01:43 | 38.93401 | -77.45726 | 292 ft | 10 kts | 291° |
| 2026-05-08 01:43 | 38.93447 | -77.45883 | 293 ft | 40 kts | 290° |
| 2026-05-08 01:43 | 38.93642 | -77.46553 | 301 ft | 116 kts | 291° |
| 2026-05-08 01:44 | 38.94007 | -77.47791 | 315 ft | 176 kts | 290° |
| 2026-05-08 01:44 | 38.94463 | -77.49319 | 833 ft | 187 kts | 290° |
| 2026-05-08 01:44 | 38.94920 | -77.50829 | 1663 ft | 184 kts | 291° |
| 2026-05-08 01:44 | 38.95478 | -77.52255 | 2423 ft | 180 kts | 293° |
| 2026-05-08 01:45 | 38.95628 | -77.53825 | 3089 ft | 185 kts | 272° |
| 2026-05-08 01:45 | 38.95500 | -77.55604 | 3183 ft | 222 kts | 260° |
| 2026-05-08 01:45 | 38.94762 | -77.57549 | 3060 ft | 252 kts | 243° |
| 2026-05-08 01:45 | 38.93985 | -77.59553 | 3008 ft | 249 kts | 262° |
| 2026-05-08 01:46 | 38.94017 | -77.61710 | 3004 ft | 244 kts | 291° |
| 2026-05-08 01:46 | 38.94898 | -77.63511 | 3004 ft | 241 kts | 320° |
| 2026-05-08 01:46 | 38.96350 | -77.64588 | 3015 ft | 241 kts | 334° |
| 2026-05-08 01:46 | 38.97666 | -77.65878 | 2977 ft | 244 kts | 303° |
| 2026-05-08 01:47 | 38.98078 | -77.68045 | 3386 ft | 264 kts | 268° |
| 2026-05-08 01:47 | 38.97572 | -77.70262 | 4551 ft | 267 kts | 244° |
| 2026-05-08 01:47 | 38.96379 | -77.72040 | 5697 ft | 272 kts | 218° |
| 2026-05-08 01:48 | 38.92681 | -77.73226 | 7697 ft | 286 kts | 189° |
| 2026-05-08 01:48 | 38.90717 | -77.73492 | 8648 ft | 289 kts | 190° |
| 2026-05-08 01:48 | 38.88723 | -77.73782 | 9584 ft | 292 kts | 191° |
| 2026-05-08 01:48 | 38.86704 | -77.74088 | 10508 ft | 295 kts | 192° |
| 2026-05-08 01:49 | 38.84611 | -77.74412 | 11119 ft | 310 kts | 192° |
| 2026-05-08 01:49 | 38.82413 | -77.74763 | 11596 ft | 328 kts | 192° |
| 2026-05-08 01:49 | 38.80077 | -77.75136 | 12045 ft | 347 kts | 192° |
| 2026-05-08 01:49 | 38.77631 | -77.75524 | 12529 ft | 363 kts | 192° |
| 2026-05-08 01:50 | 38.75131 | -77.75912 | 13370 ft | 368 kts | 193° |
| 2026-05-08 01:50 | 38.72592 | -77.76303 | 14317 ft | 369 kts | 193° |
| 2026-05-08 01:50 | 38.70041 | -77.76698 | 15260 ft | 369 kts | 194° |
| 2026-05-08 01:50 | 38.67494 | -77.77098 | 16096 ft | 372 kts | 195° |
| 2026-05-08 01:51 | 38.64939 | -77.77501 | 16868 ft | 376 kts | 195° |
| 2026-05-08 01:51 | 38.62343 | -77.77911 | 17654 ft | 378 kts | 195° |
| 2026-05-08 01:51 | 38.59718 | -77.78324 | 18377 ft | 382 kts | 196° |
| 2026-05-08 01:51 | 38.57081 | -77.78739 | 19095 ft | 386 kts | 196° |
| 2026-05-08 01:52 | 38.54444 | -77.79424 | 19779 ft | 377 kts | 208° |
| 2026-05-08 01:52 | 38.52166 | -77.80840 | 20503 ft | 366 kts | 221° |
| 2026-05-08 01:52 | 38.50219 | -77.82878 | 21193 ft | 357 kts | 232° |
| 2026-05-08 01:52 | 38.48555 | -77.85217 | 21883 ft | 358 kts | 234° |
| 2026-05-08 01:53 | 38.46875 | -77.87575 | 22506 ft | 362 kts | 234° |
| 2026-05-08 01:53 | 38.45239 | -77.90007 | 23177 ft | 362 kts | 237° |
| 2026-05-08 01:53 | 38.43714 | -77.92501 | 23870 ft | 361 kts | 239° |
| 2026-05-08 01:53 | 38.42259 | -77.95107 | 24556 ft | 361 kts | 241° |
| 2026-05-08 01:54 | 38.40787 | -77.97746 | 25147 ft | 365 kts | 241° |
| 2026-05-08 01:54 | 38.39316 | -78.00395 | 25758 ft | 368 kts | 241° |
| 2026-05-08 01:54 | 38.37832 | -78.03056 | 26426 ft | 369 kts | 241° |
| 2026-05-08 01:54 | 38.36355 | -78.05711 | 26953 ft | 372 kts | 242° |
| 2026-05-08 01:55 | 38.34864 | -78.08395 | 27487 ft | 375 kts | 242° |
| 2026-05-08 01:55 | 38.33346 | -78.11124 | 28044 ft | 378 kts | 242° |
| 2026-05-08 01:55 | 38.31831 | -78.13842 | 28572 ft | 380 kts | 241° |
| 2026-05-08 01:55 | 38.30311 | -78.16577 | 29130 ft | 382 kts | 242° |
| 2026-05-08 01:56 | 38.28774 | -78.19325 | 29668 ft | 383 kts | 242° |
| 2026-05-08 01:56 | 38.27221 | -78.22111 | 30270 ft | 382 kts | 242° |
| 2026-05-08 01:56 | 38.25702 | -78.24825 | 30999 ft | 377 kts | 243° |
| 2026-05-08 01:56 | 38.24194 | -78.27508 | 31727 ft | 372 kts | 243° |
| 2026-05-08 01:57 | 38.22714 | -78.30160 | 32409 ft | 367 kts | 243° |
| 2026-05-08 01:57 | 38.21264 | -78.32752 | 33092 ft | 361 kts | 244° |
| 2026-05-08 01:57 | 38.19829 | -78.35310 | 33704 ft | 358 kts | 244° |
| 2026-05-08 01:57 | 38.18388 | -78.37887 | 34280 ft | 355 kts | 243° |
| 2026-05-08 01:58 | 38.16942 | -78.40439 | 34765 ft | 356 kts | 242° |
| 2026-05-08 01:58 | 38.15469 | -78.42920 | 35213 ft | 356 kts | 243° |
| 2026-05-08 01:58 | 38.13977 | -78.45410 | 35638 ft | 356 kts | 242° |
| 2026-05-08 01:58 | 38.12472 | -78.47916 | 36040 ft | 356 kts | 242° |
| 2026-05-08 01:59 | 38.10975 | -78.50414 | 36365 ft | 358 kts | 242° |
| 2026-05-08 01:59 | 38.09466 | -78.52935 | 36629 ft | 360 kts | 243° |
| 2026-05-08 01:59 | 38.07949 | -78.55464 | 36883 ft | 362 kts | 242° |
| 2026-05-08 01:59 | 38.06422 | -78.58013 | 37134 ft | 364 kts | 242° |
| 2026-05-08 02:00 | 38.04898 | -78.60558 | 37307 ft | 365 kts | 243° |
| 2026-05-08 02:00 | 38.03355 | -78.63124 | 37587 ft | 367 kts | 241° |
| 2026-05-08 02:00 | 38.01821 | -78.65670 | 37853 ft | 369 kts | 242° |
| 2026-05-08 02:00 | 38.00250 | -78.68285 | 37941 ft | 369 kts | 241° |
| 2026-05-08 02:01 | 37.97127 | -78.73465 | 37949 ft | 372 kts | 242° |
| 2026-05-08 02:01 | 37.93998 | -78.78655 | 37949 ft | 371 kts | 242° |
| 2026-05-08 02:02 | 37.90886 | -78.83811 | 37960 ft | 369 kts | 241° |
| 2026-05-08 02:02 | 37.87752 | -78.88984 | 37952 ft | 371 kts | 242° |
| 2026-05-08 02:03 | 37.84621 | -78.94160 | 37958 ft | 370 kts | 241° |
| 2026-05-08 02:03 | 37.81517 | -78.99279 | 37951 ft | 368 kts | 241° |
| 2026-05-08 02:04 | 37.78396 | -79.04416 | 37957 ft | 367 kts | 242° |
| 2026-05-08 02:04 | 37.75278 | -79.09536 | 37951 ft | 368 kts | 242° |
| 2026-05-08 02:05 | 37.72176 | -79.14632 | 37953 ft | 367 kts | 241° |
| 2026-05-08 02:05 | 37.69080 | -79.19702 | 37956 ft | 366 kts | 242° |
| 2026-05-08 02:06 | 37.66029 | -79.24825 | 37978 ft | 362 kts | 242° |
| 2026-05-08 02:06 | 37.63023 | -79.29900 | 37966 ft | 363 kts | 243° |
| 2026-05-08 02:07 | 37.60007 | -79.34984 | 37957 ft | 363 kts | 244° |
| 2026-05-08 02:07 | 37.56982 | -79.40076 | 37960 ft | 362 kts | 243° |
| 2026-05-08 02:08 | 37.53956 | -79.45165 | 37954 ft | 362 kts | 243° |
| 2026-05-08 02:08 | 37.50936 | -79.50223 | 37964 ft | 362 kts | 242° |
| 2026-05-08 02:09 | 37.47921 | -79.55270 | 37962 ft | 360 kts | 243° |
| 2026-05-08 02:09 | 37.44911 | -79.60299 | 37960 ft | 361 kts | 244° |
| 2026-05-08 02:10 | 37.41896 | -79.65335 | 37968 ft | 361 kts | 243° |
| 2026-05-08 02:10 | 37.38872 | -79.70373 | 37968 ft | 362 kts | 243° |
| 2026-05-08 02:11 | 37.35840 | -79.75420 | 37968 ft | 361 kts | 243° |
| 2026-05-08 02:11 | 37.32836 | -79.80411 | 37969 ft | 360 kts | 242° |
| 2026-05-08 02:12 | 37.29824 | -79.85413 | 37970 ft | 361 kts | 243° |
| 2026-05-08 02:12 | 37.26783 | -79.90444 | 37969 ft | 362 kts | 244° |
| 2026-05-08 02:13 | 37.23771 | -79.95432 | 37968 ft | 358 kts | 243° |
| 2026-05-08 02:13 | 37.20741 | -80.00429 | 37973 ft | 359 kts | 244° |
| 2026-05-08 02:14 | 37.17728 | -80.05407 | 37970 ft | 360 kts | 244° |
| 2026-05-08 02:14 | 37.14722 | -80.10361 | 37967 ft | 358 kts | 242° |
| 2026-05-08 02:15 | 37.11700 | -80.15321 | 37992 ft | 358 kts | 243° |
| 2026-05-08 02:15 | 37.08702 | -80.20252 | 37986 ft | 357 kts | 243° |
| 2026-05-08 02:16 | 37.05693 | -80.25178 | 38001 ft | 358 kts | 243° |
| 2026-05-08 02:16 | 37.02631 | -80.30093 | 37999 ft | 359 kts | 241° |
| 2026-05-08 02:17 | 36.99281 | -80.34724 | 37993 ft | 364 kts | 239° |
| 2026-05-08 02:17 | 36.95749 | -80.39252 | 37991 ft | 363 kts | 239° |
| 2026-05-08 02:18 | 36.92239 | -80.43774 | 37993 ft | 361 kts | 238° |
| 2026-05-08 02:18 | 36.88726 | -80.48275 | 37994 ft | 363 kts | 238° |
| 2026-05-08 02:19 | 36.85202 | -80.52783 | 37990 ft | 362 kts | 237° |
| 2026-05-08 02:19 | 36.81699 | -80.57250 | 37995 ft | 362 kts | 238° |
| 2026-05-08 02:20 | 36.78167 | -80.61746 | 37993 ft | 363 kts | 238° |
| 2026-05-08 02:20 | 36.74635 | -80.66232 | 37993 ft | 362 kts | 238° |
| 2026-05-08 02:21 | 36.71103 | -80.70714 | 38000 ft | 364 kts | 238° |
| 2026-05-08 02:21 | 36.67576 | -80.75189 | 37996 ft | 361 kts | 237° |
| 2026-05-08 02:22 | 36.64063 | -80.79624 | 38001 ft | 361 kts | 238° |
| 2026-05-08 02:22 | 36.60524 | -80.84104 | 37996 ft | 361 kts | 237° |
| 2026-05-08 02:23 | 36.56998 | -80.88551 | 37996 ft | 363 kts | 237° |
| 2026-05-08 02:23 | 36.53490 | -80.92976 | 37997 ft | 361 kts | 237° |
| 2026-05-08 02:24 | 36.49958 | -80.97416 | 37989 ft | 363 kts | 238° |
| 2026-05-08 02:24 | 36.46410 | -81.01873 | 37988 ft | 363 kts | 238° |
| 2026-05-08 02:25 | 36.42889 | -81.06297 | 37994 ft | 362 kts | 238° |
| 2026-05-08 02:25 | 36.39337 | -81.10751 | 37997 ft | 363 kts | 237° |
| 2026-05-08 02:26 | 36.35787 | -81.15197 | 37998 ft | 361 kts | 237° |
| 2026-05-08 02:26 | 36.32239 | -81.19627 | 37998 ft | 363 kts | 237° |
| 2026-05-08 02:27 | 36.28690 | -81.24062 | 38004 ft | 364 kts | 238° |
| 2026-05-08 02:27 | 36.25125 | -81.28513 | 38006 ft | 364 kts | 237° |
| 2026-05-08 02:28 | 36.21565 | -81.32944 | 38007 ft | 363 kts | 237° |
| 2026-05-08 02:28 | 36.18008 | -81.37375 | 38001 ft | 363 kts | 237° |
| 2026-05-08 02:29 | 36.14474 | -81.41769 | 38011 ft | 361 kts | 238° |
| 2026-05-08 02:29 | 36.10919 | -81.46187 | 38014 ft | 362 kts | 237° |
| 2026-05-08 02:30 | 36.07368 | -81.50596 | 38020 ft | 364 kts | 238° |
| 2026-05-08 02:30 | 36.03809 | -81.55005 | 38021 ft | 363 kts | 237° |
| 2026-05-08 02:31 | 36.00240 | -81.59409 | 38017 ft | 365 kts | 237° |
| 2026-05-08 02:31 | 35.96657 | -81.63839 | 38026 ft | 363 kts | 237° |
| 2026-05-08 02:32 | 35.93073 | -81.68263 | 38033 ft | 366 kts | 237° |
| 2026-05-08 02:32 | 35.89490 | -81.72680 | 38021 ft | 367 kts | 237° |
| 2026-05-08 02:33 | 35.85885 | -81.77119 | 38029 ft | 365 kts | 237° |
| 2026-05-08 02:33 | 35.82302 | -81.81516 | 38025 ft | 366 kts | 237° |
| 2026-05-08 02:34 | 35.78685 | -81.85957 | 38032 ft | 365 kts | 236° |
| 2026-05-08 02:34 | 35.75049 | -81.90310 | 38023 ft | 366 kts | 237° |
| 2026-05-08 02:35 | 35.71394 | -81.94682 | 38033 ft | 366 kts | 237° |
| 2026-05-08 02:35 | 35.67745 | -81.99043 | 38035 ft | 367 kts | 237° |
| 2026-05-08 02:36 | 35.64072 | -82.03434 | 38024 ft | 367 kts | 236° |
| 2026-05-08 02:36 | 35.60403 | -82.07803 | 38023 ft | 370 kts | 237° |
| 2026-05-08 02:37 | 35.56733 | -82.12179 | 38023 ft | 368 kts | 236° |
| 2026-05-08 02:37 | 35.53027 | -82.16583 | 38020 ft | 369 kts | 236° |
| 2026-05-08 02:38 | 35.49350 | -82.20946 | 38019 ft | 371 kts | 236° |
| 2026-05-08 02:38 | 35.45630 | -82.25367 | 38023 ft | 370 kts | 236° |
| 2026-05-08 02:39 | 35.41927 | -82.29761 | 38018 ft | 372 kts | 237° |
| 2026-05-08 02:39 | 35.38308 | -82.34255 | 38021 ft | 371 kts | 238° |
| 2026-05-08 02:40 | 35.34691 | -82.38766 | 38022 ft | 370 kts | 238° |
| 2026-05-08 02:40 | 35.31098 | -82.43229 | 38018 ft | 371 kts | 238° |
| 2026-05-08 02:41 | 35.27475 | -82.47724 | 38019 ft | 373 kts | 238° |
| 2026-05-08 02:41 | 35.23829 | -82.52241 | 38019 ft | 372 kts | 238° |
| 2026-05-08 02:42 | 35.20204 | -82.56721 | 38018 ft | 372 kts | 238° |
| 2026-05-08 02:42 | 35.16558 | -82.61220 | 38015 ft | 374 kts | 238° |
| 2026-05-08 02:43 | 35.12855 | -82.65670 | 38017 ft | 376 kts | 235° |
| 2026-05-08 02:43 | 35.09108 | -82.70108 | 38007 ft | 376 kts | 236° |
| 2026-05-08 02:44 | 35.05355 | -82.74549 | 38006 ft | 377 kts | 236° |
| 2026-05-08 02:44 | 35.01588 | -82.79019 | 37915 ft | 378 kts | 236° |
| 2026-05-08 02:45 | 34.99701 | -82.81258 | 37228 ft | 381 kts | 236° |
| 2026-05-08 02:45 | 34.97811 | -82.83491 | 36535 ft | 380 kts | 235° |
| 2026-05-08 02:45 | 34.95914 | -82.85736 | 35882 ft | 379 kts | 235° |
| 2026-05-08 02:45 | 34.94022 | -82.87974 | 35196 ft | 379 kts | 234° |
| 2026-05-08 02:46 | 34.92140 | -82.90171 | 34541 ft | 378 kts | 234° |
| 2026-05-08 02:46 | 34.90236 | -82.92371 | 33882 ft | 377 kts | 234° |
| 2026-05-08 02:46 | 34.88354 | -82.94549 | 33233 ft | 376 kts | 234° |
| 2026-05-08 02:46 | 34.86446 | -82.96752 | 32577 ft | 376 kts | 234° |
| 2026-05-08 02:47 | 34.84552 | -82.98945 | 31913 ft | 377 kts | 234° |
| 2026-05-08 02:47 | 34.82654 | -83.01138 | 31243 ft | 378 kts | 234° |
| 2026-05-08 02:47 | 34.80768 | -83.03319 | 30564 ft | 379 kts | 234° |
| 2026-05-08 02:47 | 34.78852 | -83.05532 | 29874 ft | 380 kts | 234° |
| 2026-05-08 02:48 | 34.76943 | -83.07735 | 29180 ft | 381 kts | 234° |
| 2026-05-08 02:48 | 34.75032 | -83.09941 | 28500 ft | 383 kts | 233° |
| 2026-05-08 02:48 | 34.73090 | -83.12183 | 27809 ft | 385 kts | 233° |
| 2026-05-08 02:48 | 34.71144 | -83.14432 | 27112 ft | 387 kts | 233° |
| 2026-05-08 02:49 | 34.69200 | -83.16666 | 26635 ft | 383 kts | 233° |
| 2026-05-08 02:49 | 34.67286 | -83.18853 | 26188 ft | 379 kts | 233° |
| 2026-05-08 02:49 | 34.65393 | -83.21031 | 25729 ft | 375 kts | 232° |
| 2026-05-08 02:49 | 34.63509 | -83.23195 | 25289 ft | 372 kts | 232° |
| 2026-05-08 02:50 | 34.61626 | -83.25354 | 24860 ft | 369 kts | 233° |
| 2026-05-08 02:50 | 34.59778 | -83.27473 | 24440 ft | 366 kts | 232° |
| 2026-05-08 02:50 | 34.57939 | -83.29582 | 24025 ft | 363 kts | 233° |
| 2026-05-08 02:50 | 34.56114 | -83.31671 | 23618 ft | 362 kts | 233° |
| 2026-05-08 02:51 | 34.54299 | -83.33759 | 23245 ft | 360 kts | 232° |
| 2026-05-08 02:51 | 34.52469 | -83.35867 | 22848 ft | 359 kts | 232° |
| 2026-05-08 02:51 | 34.50658 | -83.37951 | 22463 ft | 359 kts | 232° |
| 2026-05-08 02:51 | 34.48858 | -83.40018 | 22085 ft | 358 kts | 232° |
| 2026-05-08 02:52 | 34.47055 | -83.42089 | 21690 ft | 356 kts | 232° |
| 2026-05-08 02:52 | 34.45267 | -83.44136 | 21284 ft | 355 kts | 232° |
| 2026-05-08 02:52 | 34.43471 | -83.46198 | 20866 ft | 354 kts | 232° |
| 2026-05-08 02:52 | 34.41697 | -83.48230 | 20451 ft | 352 kts | 232° |
| 2026-05-08 02:53 | 34.39912 | -83.50281 | 20038 ft | 350 kts | 232° |
| 2026-05-08 02:53 | 34.38165 | -83.52283 | 19628 ft | 349 kts | 232° |
| 2026-05-08 02:53 | 34.36385 | -83.54314 | 19204 ft | 348 kts | 232° |
| 2026-05-08 02:53 | 34.34640 | -83.56314 | 18784 ft | 346 kts | 232° |
| 2026-05-08 02:54 | 34.32902 | -83.58306 | 18371 ft | 345 kts | 232° |
| 2026-05-08 02:54 | 34.31156 | -83.60300 | 17960 ft | 343 kts | 232° |
| 2026-05-08 02:54 | 34.29427 | -83.62270 | 17545 ft | 343 kts | 232° |
| 2026-05-08 02:54 | 34.27678 | -83.64211 | 17147 ft | 343 kts | 230° |
| 2026-05-08 02:55 | 34.25877 | -83.66128 | 16750 ft | 342 kts | 229° |
| 2026-05-08 02:55 | 34.22316 | -83.69895 | 15924 ft | 342 kts | 229° |
| 2026-05-08 02:55 | 34.20527 | -83.71792 | 15506 ft | 342 kts | 229° |
| 2026-05-08 02:56 | 34.18731 | -83.73699 | 15077 ft | 342 kts | 228° |
| 2026-05-08 02:56 | 34.16952 | -83.75588 | 14649 ft | 342 kts | 228° |
| 2026-05-08 02:56 | 34.15181 | -83.77469 | 14224 ft | 342 kts | 228° |
| 2026-05-08 02:56 | 34.13377 | -83.79382 | 13797 ft | 342 kts | 228° |
| 2026-05-08 02:57 | 34.11590 | -83.81279 | 13366 ft | 342 kts | 227° |
| 2026-05-08 02:57 | 34.09819 | -83.83154 | 12944 ft | 342 kts | 227° |
| 2026-05-08 02:57 | 34.08028 | -83.85066 | 12517 ft | 340 kts | 228° |
| 2026-05-08 02:57 | 34.06288 | -83.86935 | 12099 ft | 338 kts | 228° |
| 2026-05-08 02:58 | 34.04525 | -83.88829 | 11674 ft | 336 kts | 228° |
| 2026-05-08 02:58 | 34.02786 | -83.90695 | 11255 ft | 334 kts | 227° |
| 2026-05-08 02:58 | 34.01071 | -83.92533 | 10840 ft | 332 kts | 228° |
| 2026-05-08 02:58 | 33.99343 | -83.94382 | 10420 ft | 329 kts | 227° |
| 2026-05-08 02:59 | 33.97444 | -83.95924 | 10179 ft | 335 kts | 211° |
| 2026-05-08 02:59 | 33.95171 | -83.96661 | 10043 ft | 347 kts | 193° |
| 2026-05-08 02:59 | 33.92715 | -83.96663 | 9764 ft | 353 kts | 185° |
| 2026-05-08 02:59 | 33.90244 | -83.96551 | 9281 ft | 352 kts | 185° |
| 2026-05-08 03:00 | 33.87815 | -83.96433 | 9040 ft | 343 kts | 185° |
| 2026-05-08 03:00 | 33.85499 | -83.96320 | 8991 ft | 328 kts | 185° |
| 2026-05-08 03:00 | 33.83268 | -83.96214 | 8981 ft | 312 kts | 186° |
| 2026-05-08 03:00 | 33.81142 | -83.96119 | 8978 ft | 296 kts | 186° |
| 2026-05-08 03:01 | 33.79115 | -83.96033 | 8979 ft | 288 kts | 187° |
| 2026-05-08 03:01 | 33.77116 | -83.95957 | 8895 ft | 288 kts | 188° |
| 2026-05-08 03:01 | 33.75158 | -83.96091 | 8548 ft | 281 kts | 197° |
| 2026-05-08 03:01 | 33.73279 | -83.96588 | 8205 ft | 274 kts | 204° |
| 2026-05-08 03:02 | 33.71433 | -83.97220 | 7887 ft | 272 kts | 204° |
| 2026-05-08 03:02 | 33.69643 | -83.97850 | 7591 ft | 270 kts | 204° |
| 2026-05-08 03:02 | 33.67828 | -83.98483 | 7297 ft | 268 kts | 204° |
| 2026-05-08 03:02 | 33.66050 | -83.99096 | 7044 ft | 264 kts | 203° |
| 2026-05-08 03:03 | 33.64393 | -83.99876 | 6967 ft | 242 kts | 223° |
| 2026-05-08 03:03 | 33.63380 | -84.01308 | 6934 ft | 217 kts | 251° |
| 2026-05-08 03:03 | 33.63081 | -84.03031 | 6650 ft | 213 kts | 269° |
| 2026-05-08 03:03 | 33.63103 | -84.04801 | 6383 ft | 211 kts | 273° |
| 2026-05-08 03:04 | 33.63174 | -84.06548 | 6139 ft | 208 kts | 273° |
| 2026-05-08 03:04 | 33.63226 | -84.08267 | 5914 ft | 205 kts | 273° |
| 2026-05-08 03:04 | 33.63254 | -84.09949 | 5720 ft | 199 kts | 272° |
| 2026-05-08 03:04 | 33.63264 | -84.11584 | 5515 ft | 191 kts | 272° |
| 2026-05-08 03:05 | 33.63263 | -84.13139 | 5307 ft | 184 kts | 272° |
| 2026-05-08 03:05 | 33.63258 | -84.14649 | 5118 ft | 176 kts | 272° |
| 2026-05-08 03:05 | 33.63248 | -84.16093 | 4931 ft | 169 kts | 272° |
| 2026-05-08 03:05 | 33.63240 | -84.17477 | 4750 ft | 166 kts | 272° |
| 2026-05-08 03:06 | 33.63232 | -84.18870 | 4583 ft | 167 kts | 273° |
| 2026-05-08 03:06 | 33.63223 | -84.20240 | 4404 ft | 162 kts | 274° |
| 2026-05-08 03:06 | 33.63216 | -84.21566 | 4224 ft | 155 kts | 273° |
| 2026-05-08 03:06 | 33.63209 | -84.22844 | 4022 ft | 154 kts | 274° |
| 2026-05-08 03:07 | 33.63205 | -84.24129 | 3816 ft | 153 kts | 275° |
| 2026-05-08 03:07 | 33.63201 | -84.25413 | 3612 ft | 153 kts | 275° |
| 2026-05-08 03:07 | 33.63198 | -84.26687 | 3414 ft | 155 kts | 275° |
| 2026-05-08 03:07 | 33.63195 | -84.27979 | 3214 ft | 156 kts | 275° |
| 2026-05-08 03:08 | 33.63192 | -84.29288 | 3001 ft | 154 kts | 276° |
| 2026-05-08 03:08 | 33.63190 | -84.30565 | 2800 ft | 152 kts | 275° |
| 2026-05-08 03:08 | 33.63187 | -84.31819 | 2613 ft | 152 kts | 275° |
| 2026-05-08 03:08 | 33.63186 | -84.33095 | 2414 ft | 151 kts | 275° |
| 2026-05-08 03:09 | 33.63185 | -84.34341 | 2216 ft | 151 kts | 274° |
| 2026-05-08 03:09 | 33.63185 | -84.35614 | 2016 ft | 151 kts | 274° |
| 2026-05-08 03:09 | 33.63184 | -84.36859 | 1821 ft | 151 kts | 272° |
| 2026-05-08 03:09 | 33.63184 | -84.38122 | 1618 ft | 150 kts | 271° |
| 2026-05-08 03:10 | 33.63182 | -84.39368 | 1422 ft | 150 kts | 271° |
| 2026-05-08 03:10 | 33.63178 | -84.40610 | 1220 ft | 149 kts | 271° |
| 2026-05-08 03:10 | 33.63175 | -84.41865 | 1041 ft | 149 kts | 271° |
| 2026-05-08 03:10 | 33.63176 | -84.43040 | 1024 ft | 130 kts | 270° |
| 2026-05-08 03:11 | 33.63166 | -84.44260 | 1295 ft | 161 kts | 269° |
| 2026-05-08 03:11 | 33.63049 | -84.45605 | 2024 ft | 161 kts | 262° |
| 2026-05-08 03:11 | 33.62826 | -84.46870 | 2733 ft | 156 kts | 262° |
| 2026-05-08 03:11 | 33.62550 | -84.48167 | 3176 ft | 171 kts | 261° |
| 2026-05-08 03:12 | 33.62217 | -84.49605 | 3654 ft | 188 kts | 260° |
| 2026-05-08 03:12 | 33.61851 | -84.51229 | 3964 ft | 211 kts | 260° |
| 2026-05-08 03:12 | 33.61479 | -84.52945 | 3979 ft | 215 kts | 260° |
| 2026-05-08 03:12 | 33.61100 | -84.54703 | 3985 ft | 215 kts | 260° |
| 2026-05-08 03:13 | 33.60728 | -84.56444 | 3986 ft | 216 kts | 260° |
| 2026-05-08 03:13 | 33.60344 | -84.58177 | 3986 ft | 216 kts | 256° |
| 2026-05-08 03:13 | 33.59722 | -84.59824 | 3965 ft | 220 kts | 245° |
| 2026-05-08 03:13 | 33.58837 | -84.61320 | 3969 ft | 223 kts | 233° |
| 2026-05-08 03:14 | 33.57584 | -84.62449 | 3961 ft | 233 kts | 200° |
| 2026-05-08 03:14 | 33.55936 | -84.62457 | 3982 ft | 243 kts | 163° |
| 2026-05-08 03:14 | 33.54555 | -84.61329 | 4051 ft | 251 kts | 125° |
| 2026-05-08 03:14 | 33.53960 | -84.59377 | 4723 ft | 254 kts | 91° |
| 2026-05-08 03:15 | 33.53935 | -84.57274 | 5436 ft | 256 kts | 88° |
| 2026-05-08 03:15 | 33.53936 | -84.55133 | 5855 ft | 260 kts | 89° |
| 2026-05-08 03:15 | 33.53917 | -84.52966 | 5985 ft | 262 kts | 90° |
| 2026-05-08 03:15 | 33.53877 | -84.50757 | 5988 ft | 262 kts | 90° |
| 2026-05-08 03:16 | 33.53826 | -84.48580 | 5988 ft | 262 kts | 90° |
| 2026-05-08 03:16 | 33.53772 | -84.46408 | 5988 ft | 262 kts | 91° |
| 2026-05-08 03:16 | 33.53717 | -84.44241 | 5988 ft | 262 kts | 91° |
| 2026-05-08 03:16 | 33.53670 | -84.42042 | 5988 ft | 262 kts | 89° |
| 2026-05-08 03:17 | 33.53668 | -84.39891 | 5987 ft | 261 kts | 89° |
| 2026-05-08 03:17 | 33.53677 | -84.37703 | 5986 ft | 262 kts | 89° |
| 2026-05-08 03:17 | 33.53685 | -84.35516 | 5987 ft | 262 kts | 89° |
| 2026-05-08 03:17 | 33.53690 | -84.33335 | 5987 ft | 262 kts | 89° |
| 2026-05-08 03:18 | 33.53691 | -84.31161 | 5988 ft | 262 kts | 89° |
| 2026-05-08 03:18 | 33.53692 | -84.28987 | 5988 ft | 263 kts | 89° |
| 2026-05-08 03:18 | 33.53695 | -84.26804 | 5986 ft | 263 kts | 88° |
| 2026-05-08 03:18 | 33.53698 | -84.24613 | 5987 ft | 263 kts | 88° |
| 2026-05-08 03:19 | 33.53700 | -84.22436 | 5985 ft | 263 kts | 89° |
| 2026-05-08 03:19 | 33.53702 | -84.20218 | 5985 ft | 263 kts | 89° |
| 2026-05-08 03:19 | 33.53741 | -84.18037 | 5976 ft | 262 kts | 79° |
| 2026-05-08 03:19 | 33.54418 | -84.16125 | 5737 ft | 247 kts | 39° |
| 2026-05-08 03:20 | 33.55838 | -84.15161 | 5432 ft | 227 kts | 359° |
| 2026-05-08 03:20 | 33.57315 | -84.15421 | 5204 ft | 210 kts | 331° |
| 2026-05-08 03:20 | 33.58499 | -84.16359 | 4965 ft | 200 kts | 314° |
| 2026-05-08 03:20 | 33.59479 | -84.17494 | 4683 ft | 196 kts | 314° |
| 2026-05-08 03:21 | 33.60468 | -84.18600 | 4426 ft | 191 kts | 316° |
| 2026-05-08 03:21 | 33.61446 | -84.19639 | 4172 ft | 185 kts | 318° |
| 2026-05-08 03:21 | 33.62400 | -84.20625 | 4025 ft | 173 kts | 316° |
| 2026-05-08 03:21 | 33.62946 | -84.21805 | 3978 ft | 161 kts | 287° |
| 2026-05-08 03:22 | 33.63108 | -84.23106 | 3847 ft | 157 kts | 278° |
| 2026-05-08 03:22 | 33.63168 | -84.24400 | 3732 ft | 155 kts | 276° |
| 2026-05-08 03:22 | 33.63193 | -84.25693 | 3580 ft | 154 kts | 276° |
| 2026-05-08 03:22 | 33.63200 | -84.26978 | 3371 ft | 153 kts | 275° |
| 2026-05-08 03:23 | 33.63199 | -84.28258 | 3164 ft | 153 kts | 275° |
| 2026-05-08 03:23 | 33.63196 | -84.29526 | 2963 ft | 152 kts | 275° |
| 2026-05-08 03:23 | 33.63193 | -84.30788 | 2770 ft | 152 kts | 274° |
| 2026-05-08 03:23 | 33.63191 | -84.32049 | 2575 ft | 151 kts | 273° |
| 2026-05-08 03:24 | 33.63188 | -84.33311 | 2383 ft | 151 kts | 273° |
| 2026-05-08 03:24 | 33.63187 | -84.34573 | 2181 ft | 151 kts | 273° |
| 2026-05-08 03:24 | 33.63186 | -84.35832 | 1981 ft | 150 kts | 272° |
| 2026-05-08 03:24 | 33.63184 | -84.37071 | 1784 ft | 150 kts | 272° |
| 2026-05-08 03:25 | 33.63183 | -84.38320 | 1583 ft | 149 kts | 272° |
| 2026-05-08 03:25 | 33.63182 | -84.39577 | 1390 ft | 150 kts | 271° |
| 2026-05-08 03:25 | 33.63169 | -84.40817 | 1205 ft | 150 kts | 270° |
| 2026-05-08 03:25 | 33.63179 | -84.42069 | 1020 ft | 149 kts | 271° |
| 2026-05-08 03:26 | 33.63181 | -84.43188 | 1015 ft | 110 kts | 271° |
| 2026-05-08 03:26 | 33.63182 | -84.43853 | 1021 ft | 45 kts | 270° |
| 2026-05-08 03:26 | 33.63234 | -84.44176 | 1027 ft | 30 kts | 297° |
| 2026-05-08 03:26 | 33.63322 | -84.44367 | 1030 ft | 25 kts | 297° |
| 2026-05-08 03:27 | 33.63360 | -84.44574 | 1029 ft | 22 kts | 270° |
| 2026-05-08 03:27 | 33.63361 | -84.44727 | 1026 ft | 11 kts | 276° |
| 2026-05-08 03:27 | 33.63418 | -84.44778 | 1025 ft | 12 kts | 356° |
| 2026-05-08 03:27 | 33.63515 | -84.44782 | 1026 ft | 14 kts | 0° |
| 2026-05-08 03:28 | 33.63615 | -84.44767 | 1028 ft | 14 kts | 26° |
| 2026-05-08 03:28 | 33.63663 | -84.44671 | 1030 ft | 15 kts | 88° |
| 2026-05-08 03:28 | 33.63664 | -84.44535 | 1030 ft | 17 kts | 90° |
| 2026-05-08 03:28 | 33.63665 | -84.44380 | 1030 ft | 19 kts | 90° |
| 2026-05-08 03:29 | 33.63665 | -84.44214 | 1030 ft | 21 kts | 90° |
| 2026-05-08 03:29 | 33.63665 | -84.44026 | 1028 ft | 24 kts | 90° |
| 2026-05-08 03:29 | 33.63664 | -84.43835 | 1024 ft | 23 kts | 90° |